sensor_id;sensor_type;location;lat;lon;timestamp;temperature;humidity
25050;DHT22;13046;49.814;9.918;2023-04-24T05:02:36;13.70;99.90
25050;DHT22;13046;49.814;9.918;2023-04-24T05:05:02;11.30;99.90
25050;DHT22;13046;49.814;9.918;2023-04-24T05:07:28;11.20;99.90
25050;DHT22;13046;49.814;9.918;2023-04-24T05:09:55;11.10;99.90
25050;DHT22;13046;49.814;9.918;2023-04-24T05:12:20;11.20;99.90
25050;DHT22;13046;49.814;9.918;2023-04-24T05:14:51;11.20;99.90
25050;DHT22;13046;49.814;9.918;2023-04-24T05:17:16;11.10;99.90
25050;DHT22;13046;49.814;9.918;2023-04-24T05:19:42;11.10;99.90
25050;DHT22;13046;49.814;9.918;2023-04-24T05:22:08;11.20;99.90
25050;DHT22;13046;49.814;9.918;2023-04-24T05:24:41;11.20;99.90
25050;DHT22;13046;49.814;9.918;2023-04-24T05:27:27;11.20;99.90
25050;DHT22;13046;49.814;9.918;2023-04-24T05:29:52;11.20;99.90
25050;DHT22;13046;49.814;9.918;2023-04-24T05:34:44;11.20;99.90
25050;DHT22;13046;49.814;9.918;2023-04-24T05:49:22;11.10;99.90
25050;DHT22;13046;49.814;9.918;2023-04-24T06:41:10;11.10;99.90
25050;DHT22;13046;49.814;9.918;2023-04-24T06:50:55;11.50;99.90
25050;DHT22;13046;49.814;9.918;2023-04-24T06:53:20;11.70;99.90
25050;DHT22;13046;49.814;9.918;2023-04-24T07:12:54;11.80;99.90
25050;DHT22;13046;49.814;9.918;2023-04-24T07:15:21;12.10;99.90
25050;DHT22;13046;49.814;9.918;2023-04-24T07:42:11;12.00;99.90
25050;DHT22;13046;49.814;9.918;2023-04-24T07:49:29;12.40;99.90
25050;DHT22;13046;49.814;9.918;2023-04-24T07:56:47;12.20;99.90
25050;DHT22;13046;49.814;9.918;2023-04-24T07:59:13;12.20;99.90
25050;DHT22;13046;49.814;9.918;2023-04-24T08:01:39;12.10;99.90
25050;DHT22;13046;49.814;9.918;2023-04-24T08:04:04;12.20;99.90
25050;DHT22;13046;49.814;9.918;2023-04-24T08:06:30;12.20;99.90
25050;DHT22;13046;49.814;9.918;2023-04-24T08:08:57;12.20;99.90
25050;DHT22;13046;49.814;9.918;2023-04-24T08:11:24;12.00;99.90
25050;DHT22;13046;49.814;9.918;2023-04-24T08:13:49;11.90;99.90
25050;DHT22;13046;49.814;9.918;2023-04-24T08:16:15;12.00;99.90
25050;DHT22;13046;49.814;9.918;2023-04-24T08:18:41;12.10;99.90
25050;DHT22;13046;49.814;9.918;2023-04-24T08:21:07;12.30;99.90
25050;DHT22;13046;49.814;9.918;2023-04-24T08:23:32;12.40;99.90
25050;DHT22;13046;49.814;9.918;2023-04-24T08:25:58;12.40;99.90
25050;DHT22;13046;49.814;9.918;2023-04-24T08:28:24;12.40;99.90
25050;DHT22;13046;49.814;9.918;2023-04-24T08:30:49;12.40;99.90
25050;DHT22;13046;49.814;9.918;2023-04-24T08:33:21;12.20;99.90
25050;DHT22;13046;49.814;9.918;2023-04-24T08:35:46;12.00;99.90
25050;DHT22;13046;49.814;9.918;2023-04-24T08:38:12;11.90;99.90
25050;DHT22;13046;49.814;9.918;2023-04-24T08:40:38;11.80;99.90
25050;DHT22;13046;49.814;9.918;2023-04-24T08:43:04;11.60;99.90
25050;DHT22;13046;49.814;9.918;2023-04-24T08:45:30;11.50;99.90
25050;DHT22;13046;49.814;9.918;2023-04-24T08:47:58;11.40;99.90
25050;DHT22;13046;49.814;9.918;2023-04-24T08:50:25;11.30;99.90
25050;DHT22;13046;49.814;9.918;2023-04-24T08:52:51;11.40;99.90
25050;DHT22;13046;49.814;9.918;2023-04-24T08:55:19;11.40;99.90
25050;DHT22;13046;49.814;9.918;2023-04-24T08:57:50;11.40;99.90
25050;DHT22;13046;49.814;9.918;2023-04-24T09:00:17;11.40;99.90
25050;DHT22;13046;49.814;9.918;2023-04-24T09:02:45;11.60;99.90
25050;DHT22;13046;49.814;9.918;2023-04-24T09:05:13;12.30;99.90
25050;DHT22;13046;49.814;9.918;2023-04-24T09:07:39;13.00;99.90
25050;DHT22;13046;49.814;9.918;2023-04-24T09:10:07;13.70;99.90
25050;DHT22;13046;49.814;9.918;2023-04-24T09:12:34;13.80;99.90
25050;DHT22;13046;49.814;9.918;2023-04-24T09:15:00;13.60;99.90
25050;DHT22;13046;49.814;9.918;2023-04-24T09:17:30;14.00;99.90
25050;DHT22;13046;49.814;9.918;2023-04-24T09:19:55;14.10;99.90
25050;DHT22;13046;49.814;9.918;2023-04-24T09:22:21;14.10;99.90
25050;DHT22;13046;49.814;9.918;2023-04-24T09:24:47;14.60;99.90
25050;DHT22;13046;49.814;9.918;2023-04-24T09:27:13;13.80;99.90
25050;DHT22;13046;49.814;9.918;2023-04-24T09:29:54;14.10;99.90
25050;DHT22;13046;49.814;9.918;2023-04-24T09:32:21;14.30;99.90
25050;DHT22;13046;49.814;9.918;2023-04-24T09:34:47;14.50;99.90
25050;DHT22;13046;49.814;9.918;2023-04-24T09:37:29;13.90;99.90
25050;DHT22;13046;49.814;9.918;2023-04-24T09:40:15;13.80;99.90
25050;DHT22;13046;49.814;9.918;2023-04-24T09:42:59;14.10;99.90
25050;DHT22;13046;49.814;9.918;2023-04-24T09:45:28;14.10;99.90
25050;DHT22;13046;49.814;9.918;2023-04-24T09:48:00;14.30;99.90
25050;DHT22;13046;49.814;9.918;2023-04-24T09:50:26;14.90;99.90
25050;DHT22;13046;49.814;9.918;2023-04-24T09:53:03;15.10;99.90
25050;DHT22;13046;49.814;9.918;2023-04-24T09:55:29;14.60;99.90
25050;DHT22;13046;49.814;9.918;2023-04-24T09:57:59;14.00;99.90
25050;DHT22;13046;49.814;9.918;2023-04-24T10:00:30;13.40;99.90
25050;DHT22;13046;49.814;9.918;2023-04-24T10:03:01;13.10;99.90
25050;DHT22;13046;49.814;9.918;2023-04-24T10:08:05;12.90;99.90
25050;DHT22;13046;49.814;9.918;2023-04-24T10:10:33;12.70;99.90
25050;DHT22;13046;49.814;9.918;2023-04-24T10:12:59;12.60;99.90
25050;DHT22;13046;49.814;9.918;2023-04-24T10:15:26;12.80;99.90
25050;DHT22;13046;49.814;9.918;2023-04-24T10:17:52;12.90;99.90
25050;DHT22;13046;49.814;9.918;2023-04-24T10:20:23;13.10;99.90
25050;DHT22;13046;49.814;9.918;2023-04-24T10:22:51;13.30;99.90
25050;DHT22;13046;49.814;9.918;2023-04-24T10:27:46;13.50;99.90
25050;DHT22;13046;49.814;9.918;2023-04-24T10:30:13;13.90;99.90
25050;DHT22;13046;49.814;9.918;2023-04-24T10:32:39;13.60;99.90
25050;DHT22;13046;49.814;9.918;2023-04-24T10:35:09;13.50;99.90
25050;DHT22;13046;49.814;9.918;2023-04-24T10:37:39;13.20;99.90
25050;DHT22;13046;49.814;9.918;2023-04-24T10:40:06;13.10;99.90
25050;DHT22;13046;49.814;9.918;2023-04-24T10:42:34;13.00;99.90
25050;DHT22;13046;49.814;9.918;2023-04-24T10:45:05;12.90;99.90
25050;DHT22;13046;49.814;9.918;2023-04-24T10:47:40;12.70;99.90
25050;DHT22;13046;49.814;9.918;2023-04-24T10:50:10;12.50;99.90
25050;DHT22;13046;49.814;9.918;2023-04-24T10:52:49;12.50;99.90
25050;DHT22;13046;49.814;9.918;2023-04-24T10:55:39;12.50;99.90
25050;DHT22;13046;49.814;9.918;2023-04-24T10:58:05;12.50;99.90
25050;DHT22;13046;49.814;9.918;2023-04-24T11:00:31;12.70;99.90
25050;DHT22;13046;49.814;9.918;2023-04-24T11:02:57;12.90;99.90
25050;DHT22;13046;49.814;9.918;2023-04-24T11:05:56;13.00;99.90
25050;DHT22;13046;49.814;9.918;2023-04-24T11:08:30;13.00;99.90
25050;DHT22;13046;49.814;9.918;2023-04-24T11:41:14;13.00;99.90
25050;DHT22;13046;49.814;9.918;2023-04-24T11:43:41;12.30;99.90
25050;DHT22;13046;49.814;9.918;2023-04-24T11:46:07;12.30;99.90
25050;DHT22;13046;49.814;9.918;2023-04-24T11:48:36;12.50;99.90
25050;DHT22;13046;49.814;9.918;2023-04-24T11:51:05;12.70;99.90
25050;DHT22;13046;49.814;9.918;2023-04-24T11:53:31;12.60;99.90
25050;DHT22;13046;49.814;9.918;2023-04-24T12:03:21;12.80;99.90
25050;DHT22;13046;49.814;9.918;2023-04-24T12:15:45;13.10;99.90
25050;DHT22;13046;49.814;9.918;2023-04-24T12:18:14;13.70;99.90
25050;DHT22;13046;49.814;9.918;2023-04-24T12:20:42;13.90;99.90
25050;DHT22;13046;49.814;9.918;2023-04-24T12:23:08;14.60;99.90
25050;DHT22;13046;49.814;9.918;2023-04-24T12:25:34;15.40;99.90
25050;DHT22;13046;49.814;9.918;2023-04-24T12:30:29;15.30;99.90
25050;DHT22;13046;49.814;9.918;2023-04-24T12:32:57;15.30;99.90
25050;DHT22;13046;49.814;9.918;2023-04-24T12:35:25;15.40;99.90
25050;DHT22;13046;49.814;9.918;2023-04-24T12:37:51;15.90;99.90
25050;DHT22;13046;49.814;9.918;2023-04-24T12:40:17;15.60;99.90
25050;DHT22;13046;49.814;9.918;2023-04-24T12:42:51;15.20;99.90
25050;DHT22;13046;49.814;9.918;2023-04-24T12:45:18;14.40;99.90
25050;DHT22;13046;49.814;9.918;2023-04-24T12:47:45;14.20;99.90
25050;DHT22;13046;49.814;9.918;2023-04-24T12:50:13;14.10;99.90
25050;DHT22;13046;49.814;9.918;2023-04-24T12:52:40;13.80;99.90
25050;DHT22;13046;49.814;9.918;2023-04-24T12:55:06;13.40;99.90
25050;DHT22;13046;49.814;9.918;2023-04-24T12:57:37;13.40;99.90
25050;DHT22;13046;49.814;9.918;2023-04-24T13:00:03;13.20;99.90
25050;DHT22;13046;49.814;9.918;2023-04-24T13:02:30;13.00;99.90
25050;DHT22;13046;49.814;9.918;2023-04-24T13:04:57;13.00;99.90
25050;DHT22;13046;49.814;9.918;2023-04-24T13:07:23;13.10;99.90
25050;DHT22;13046;49.814;9.918;2023-04-24T13:09:51;13.10;99.90
25050;DHT22;13046;49.814;9.918;2023-04-24T13:12:17;13.10;99.90
25050;DHT22;13046;49.814;9.918;2023-04-24T13:14:43;12.80;99.90
25050;DHT22;13046;49.814;9.918;2023-04-24T13:17:09;12.70;99.90
25050;DHT22;13046;49.814;9.918;2023-04-24T13:19:40;12.70;99.90
25050;DHT22;13046;49.814;9.918;2023-04-24T13:22:06;12.70;99.90
25050;DHT22;13046;49.814;9.918;2023-04-24T13:24:33;12.70;99.90
25050;DHT22;13046;49.814;9.918;2023-04-24T13:26:59;12.60;99.90
25050;DHT22;13046;49.814;9.918;2023-04-24T13:29:26;12.60;99.90
25050;DHT22;13046;49.814;9.918;2023-04-24T13:31:52;12.50;99.90
25050;DHT22;13046;49.814;9.918;2023-04-24T13:34:20;12.50;99.90
25050;DHT22;13046;49.814;9.918;2023-04-24T13:36:46;12.90;99.90
25050;DHT22;13046;49.814;9.918;2023-04-24T13:39:12;13.10;99.90
25050;DHT22;13046;49.814;9.918;2023-04-24T13:41:38;13.50;99.90
25050;DHT22;13046;49.814;9.918;2023-04-24T13:44:04;13.90;99.90
25050;DHT22;13046;49.814;9.918;2023-04-24T13:46:30;13.90;99.90
25050;DHT22;13046;49.814;9.918;2023-04-24T13:48:56;13.50;99.90
25050;DHT22;13046;49.814;9.918;2023-04-24T13:51:23;13.40;99.90
25050;DHT22;13046;49.814;9.918;2023-04-24T13:53:48;13.30;99.90
25050;DHT22;13046;49.814;9.918;2023-04-24T13:56:14;13.10;99.90
25050;DHT22;13046;49.814;9.918;2023-04-24T13:58:40;13.00;99.90
25050;DHT22;13046;49.814;9.918;2023-04-24T14:01:06;12.70;99.90
25050;DHT22;13046;49.814;9.918;2023-04-24T14:03:33;12.60;99.90
25050;DHT22;13046;49.814;9.918;2023-04-24T14:05:58;12.40;99.90
25050;DHT22;13046;49.814;9.918;2023-04-24T14:08:24;12.50;99.90
25050;DHT22;13046;49.814;9.918;2023-04-24T14:10:50;12.30;99.90
25050;DHT22;13046;49.814;9.918;2023-04-24T14:13:16;12.10;99.90
25050;DHT22;13046;49.814;9.918;2023-04-24T14:15:42;11.90;99.90
25050;DHT22;13046;49.814;9.918;2023-04-24T14:18:08;11.70;99.90
25050;DHT22;13046;49.814;9.918;2023-04-24T14:20:34;11.70;99.90
25050;DHT22;13046;49.814;9.918;2023-04-24T14:23:01;11.80;99.90
25050;DHT22;13046;49.814;9.918;2023-04-24T14:25:26;12.10;99.90
25050;DHT22;13046;49.814;9.918;2023-04-24T14:27:52;12.20;99.90
25050;DHT22;13046;49.814;9.918;2023-04-24T14:30:18;12.30;99.90
25050;DHT22;13046;49.814;9.918;2023-04-24T14:32:44;12.10;99.90
25050;DHT22;13046;49.814;9.918;2023-04-24T14:35:10;12.60;99.90
25050;DHT22;13046;49.814;9.918;2023-04-24T14:37:36;13.00;99.90
25050;DHT22;13046;49.814;9.918;2023-04-24T14:40:02;13.50;99.90
25050;DHT22;13046;49.814;9.918;2023-04-24T14:42:29;13.60;99.90
25050;DHT22;13046;49.814;9.918;2023-04-24T14:44:55;14.10;99.90
25050;DHT22;13046;49.814;9.918;2023-04-24T14:47:20;14.10;99.90
25050;DHT22;13046;49.814;9.918;2023-04-24T14:49:48;14.00;99.90
25050;DHT22;13046;49.814;9.918;2023-04-24T14:52:13;13.60;99.90
25050;DHT22;13046;49.814;9.918;2023-04-24T14:54:39;13.00;99.90
25050;DHT22;13046;49.814;9.918;2023-04-24T14:57:05;12.80;99.90
25050;DHT22;13046;49.814;9.918;2023-04-24T14:59:31;12.40;99.90
25050;DHT22;13046;49.814;9.918;2023-04-24T15:01:57;12.70;99.90
25050;DHT22;13046;49.814;9.918;2023-04-24T15:04:27;12.70;99.90
25050;DHT22;13046;49.814;9.918;2023-04-24T15:06:54;12.70;99.90
25050;DHT22;13046;49.814;9.918;2023-04-24T15:09:21;12.80;99.90
25050;DHT22;13046;49.814;9.918;2023-04-24T15:11:48;13.70;99.90
25050;DHT22;13046;49.814;9.918;2023-04-24T15:14:14;14.70;99.90
25050;DHT22;13046;49.814;9.918;2023-04-24T15:16:40;15.30;99.90
25050;DHT22;13046;49.814;9.918;2023-04-24T15:19:06;14.70;99.90
25050;DHT22;13046;49.814;9.918;2023-04-24T15:21:31;14.70;99.90
25050;DHT22;13046;49.814;9.918;2023-04-24T15:23:57;14.50;99.90
25050;DHT22;13046;49.814;9.918;2023-04-24T15:26:24;14.50;99.90
25050;DHT22;13046;49.814;9.918;2023-04-24T15:28:49;14.80;99.90
25050;DHT22;13046;49.814;9.918;2023-04-24T15:31:17;14.80;99.90
25050;DHT22;13046;49.814;9.918;2023-04-24T15:33:42;14.60;99.90
25050;DHT22;13046;49.814;9.918;2023-04-24T15:36:09;14.00;99.90
25050;DHT22;13046;49.814;9.918;2023-04-24T15:38:34;13.60;99.90
25050;DHT22;13046;49.814;9.918;2023-04-24T15:41:00;13.40;99.90
25050;DHT22;13046;49.814;9.918;2023-04-24T15:43:26;13.20;99.90
25050;DHT22;13046;49.814;9.918;2023-04-24T15:45:51;13.20;99.90
25050;DHT22;13046;49.814;9.918;2023-04-24T15:48:18;13.30;99.90
25050;DHT22;13046;49.814;9.918;2023-04-24T15:50:44;13.30;99.90
25050;DHT22;13046;49.814;9.918;2023-04-24T15:53:09;13.10;99.90
25050;DHT22;13046;49.814;9.918;2023-04-24T15:55:35;13.60;99.90
25050;DHT22;13046;49.814;9.918;2023-04-24T15:58:01;14.20;99.90
25050;DHT22;13046;49.814;9.918;2023-04-24T16:00:30;14.90;99.90
25050;DHT22;13046;49.814;9.918;2023-04-24T16:03:00;14.20;99.90
25050;DHT22;13046;49.814;9.918;2023-04-24T16:05:26;13.80;99.90
25050;DHT22;13046;49.814;9.918;2023-04-24T16:07:51;13.60;99.90
25050;DHT22;13046;49.814;9.918;2023-04-24T16:10:17;13.60;99.90
25050;DHT22;13046;49.814;9.918;2023-04-24T16:12:43;13.50;99.90
25050;DHT22;13046;49.814;9.918;2023-04-24T16:15:09;13.50;99.90
25050;DHT22;13046;49.814;9.918;2023-04-24T16:17:35;13.40;99.90
25050;DHT22;13046;49.814;9.918;2023-04-24T16:20:01;13.30;99.90
25050;DHT22;13046;49.814;9.918;2023-04-24T16:22:27;13.50;99.90
25050;DHT22;13046;49.814;9.918;2023-04-24T16:24:53;14.00;99.90
25050;DHT22;13046;49.814;9.918;2023-04-24T16:27:19;14.30;99.90
25050;DHT22;13046;49.814;9.918;2023-04-24T16:29:44;14.70;99.90
25050;DHT22;13046;49.814;9.918;2023-04-24T16:32:10;14.80;99.90
25050;DHT22;13046;49.814;9.918;2023-04-24T16:34:36;14.30;99.90
25050;DHT22;13046;49.814;9.918;2023-04-24T16:37:02;14.00;99.90
25050;DHT22;13046;49.814;9.918;2023-04-24T16:39:28;14.00;99.90
25050;DHT22;13046;49.814;9.918;2023-04-24T16:41:54;14.00;99.90
25050;DHT22;13046;49.814;9.918;2023-04-24T16:44:20;13.70;99.90
25050;DHT22;13046;49.814;9.918;2023-04-24T16:46:46;13.10;99.90
25050;DHT22;13046;49.814;9.918;2023-04-24T16:49:11;13.00;99.90
25050;DHT22;13046;49.814;9.918;2023-04-24T16:51:37;13.00;99.90
25050;DHT22;13046;49.814;9.918;2023-04-24T16:54:03;12.90;99.90
25050;DHT22;13046;49.814;9.918;2023-04-24T16:56:28;13.20;99.90
25050;DHT22;13046;49.814;9.918;2023-04-24T17:13:31;13.80;99.90
25050;DHT22;13046;49.814;9.918;2023-04-24T17:15:57;13.80;99.90
25050;DHT22;13046;49.814;9.918;2023-04-24T17:50:15;13.40;99.90
25050;DHT22;13046;49.814;9.918;2023-04-24T18:07:17;12.20;99.90
25050;DHT22;13046;49.814;9.918;2023-04-24T18:09:42;11.80;99.90
